Curtis Bay, Maryland
Current Conditions -  °F | °C
As of 3:54 AM on Wednesday 26 Nov 2014 (Local Time) from KBWI Reporting Station
Light Rain Light Rain  
Wind Chill: 46°   Ceiling: 7500
Heat Index: 48°   Visibility: 10mi
Dew Point: 34°   Wind: 5mph
Humidity: 58%   Direction: 360°N
Pressure: 30.07"   Gusts: NA
Location:  39.23°N, 76.59°W
Report Text: KBWI 260854Z 36004KT 10SM -RA SCT060 BKN075 OVC100 09/01 A3007 RMK AO2 RAB23 SLP182 P0000 60000 T00890011 58029 $
Loading
Personal Weather Stations






























Interactive Weather Map New forecast layout! Learn more

10-Day Weather Forecast

Advertisements
Track Severe Weather on mobile